createdAt,value
2022-11-06T00:04:43.966Z,12.43
2022-11-06T00:09:45.627Z,12.23
2022-11-06T00:14:47.178Z,11.50
2022-11-06T00:19:48.737Z,11.05
2022-11-06T00:24:50.324Z,9.77
2022-11-06T00:29:51.896Z,8.85
2022-11-06T00:34:53.456Z,9.13
2022-11-06T00:39:55.019Z,8.35
2022-11-06T00:44:56.838Z,8.88
2022-11-06T00:49:58.407Z,8.30
2022-11-06T00:54:59.955Z,7.45
2022-11-06T01:00:01.862Z,8.05
2022-11-06T01:05:03.750Z,7.07
2022-11-06T01:10:06.209Z,7.90
2022-11-06T01:15:08.093Z,7.95
2022-11-06T01:20:10.340Z,7.10
2022-11-06T01:25:12.277Z,7.53
2022-11-06T01:30:13.881Z,8.75
2022-11-06T01:35:15.557Z,7.95
2022-11-06T01:40:17.133Z,8.73
2022-11-06T01:45:37.760Z,7.32
2022-11-06T01:50:40.995Z,8.40
2022-11-06T01:55:45.499Z,8.50
2022-11-06T02:00:48.428Z,6.55
2022-11-06T02:05:50.514Z,8.55
2022-11-06T02:10:52.966Z,7.30
2022-11-06T02:16:12.707Z,6.80
2022-11-06T02:26:44.922Z,6.05
2022-11-06T02:31:50.978Z,7.05
2022-11-06T02:37:03.879Z,5.63
2022-11-06T02:42:09.766Z,6.00
2022-11-06T02:47:14.644Z,5.88
2022-11-06T02:52:23.219Z,5.35
2022-11-06T02:57:27.746Z,5.20
2022-11-06T03:02:54.155Z,5.22
2022-11-06T03:08:46.976Z,6.30
2022-11-06T03:13:56.740Z,6.20
2022-11-06T03:19:11.191Z,8.15
2022-11-06T03:24:21.882Z,10.27
2022-11-06T03:29:43.563Z,7.85
2022-11-06T03:34:53.653Z,7.55
2022-11-06T03:39:59.975Z,8.82
2022-11-06T03:45:07.615Z,9.93
2022-11-06T03:50:15.147Z,10.00
2022-11-06T03:55:27.736Z,8.23
2022-11-06T04:00:30.406Z,7.57
2022-11-06T04:05:37.731Z,7.05
2022-11-06T04:11:02.624Z,7.43
2022-11-06T04:16:04.963Z,6.38
2022-11-06T04:21:38.586Z,6.88
2022-11-06T04:26:56.340Z,7.10
2022-11-06T04:32:27.679Z,5.85
2022-11-06T04:37:40.855Z,6.00
2022-11-06T04:42:55.914Z,5.97
2022-11-06T04:47:58.988Z,5.63
2022-11-06T04:53:02.691Z,7.20
2022-11-06T04:58:04.250Z,8.77
2022-11-06T05:03:05.829Z,6.63
2022-11-06T05:08:15.086Z,6.28
2022-11-06T05:13:16.942Z,7.03
2022-11-06T05:18:18.486Z,6.90
2022-11-06T05:23:20.055Z,6.13
2022-11-06T05:28:21.642Z,7.47
2022-11-06T05:33:23.876Z,6.88
2022-11-06T05:38:25.438Z,6.50
2022-11-06T05:43:27.086Z,7.38
2022-11-06T05:48:29.513Z,6.82
2022-11-06T05:53:32.675Z,10.23
2022-11-06T05:58:34.240Z,7.90
2022-11-06T06:03:35.784Z,6.88
2022-11-06T06:08:37.326Z,6.35
2022-11-06T06:13:38.891Z,6.63
2022-11-06T06:18:40.458Z,5.22
2022-11-06T06:23:42.391Z,4.97
2022-11-06T06:28:43.966Z,5.30
2022-11-06T06:33:45.628Z,4.93
2022-11-06T06:38:47.279Z,12.90
2022-11-06T06:43:49.538Z,5.70
2022-11-06T06:48:51.163Z,5.90
2022-11-06T06:53:52.753Z,5.82
2022-11-06T06:58:54.923Z,5.15
2022-11-06T07:04:00.013Z,4.55
2022-11-06T07:09:05.413Z,5.43
2022-11-06T07:14:07.106Z,4.57
2022-11-06T07:19:08.676Z,4.60
2022-11-06T07:24:10.349Z,5.32
2022-11-06T07:29:11.990Z,4.80
2022-11-06T07:34:13.770Z,4.40
2022-11-06T07:39:15.469Z,4.38
2022-11-06T07:44:17.070Z,4.20
2022-11-06T07:49:18.670Z,4.20
2022-11-06T07:54:20.226Z,4.13
2022-11-06T07:59:22.900Z,4.47
2022-11-06T08:04:24.573Z,3.92
2022-11-06T08:09:26.174Z,5.38
2022-11-06T08:14:27.931Z,5.82
2022-11-06T08:19:29.655Z,7.32
2022-11-06T08:24:31.215Z,7.47
2022-11-06T08:29:37.011Z,7.32
2022-11-06T08:34:42.360Z,8.25
2022-11-06T08:39:44.507Z,8.30
2022-11-06T08:44:46.130Z,7.70
2022-11-06T08:49:47.680Z,8.45
2022-11-06T08:54:49.221Z,9.70
2022-11-06T08:59:50.836Z,8.13
2022-11-06T09:04:52.422Z,8.18
2022-11-06T09:09:53.976Z,6.68
2022-11-06T09:14:55.535Z,6.05
2022-11-06T09:19:57.086Z,6.07
2022-11-06T09:25:03.643Z,6.13
2022-11-06T09:30:06.404Z,6.18
2022-11-06T09:35:08.440Z,5.57
2022-11-06T09:40:23.135Z,4.88
2022-11-06T09:45:28.666Z,4.40
2022-11-06T09:50:35.821Z,4.18
2022-11-06T09:55:44.091Z,4.20
2022-11-06T10:00:46.063Z,3.70
2022-11-06T10:05:48.465Z,4.63
2022-11-06T10:11:14.685Z,4.90
2022-11-06T10:16:34.381Z,4.82
2022-11-06T10:21:50.338Z,4.65
2022-11-06T10:26:56.091Z,5.65
2022-11-06T10:32:19.081Z,4.95
2022-11-06T10:37:26.068Z,4.15
2022-11-06T10:42:38.255Z,4.18
2022-11-06T10:47:45.207Z,4.28
2022-11-06T10:53:15.756Z,4.28
2022-11-06T10:58:21.213Z,3.97
2022-11-06T11:03:32.676Z,4.00
2022-11-06T11:08:40.392Z,4.57
2022-11-06T11:13:45.130Z,3.58
2022-11-06T11:18:46.811Z,3.72
2022-11-06T11:24:00.697Z,3.80
2022-11-06T11:29:14.096Z,3.88
2022-11-06T11:34:38.344Z,4.22
2022-11-06T11:39:44.385Z,3.65
2022-11-06T11:44:45.964Z,4.70
2022-11-06T11:49:47.517Z,3.65
2022-11-06T11:54:52.691Z,3.33
2022-11-06T12:00:00.548Z,3.58
2022-11-06T12:05:06.499Z,3.63
2022-11-06T12:10:29.399Z,3.67
2022-11-06T12:15:40.045Z,3.20
2022-11-06T12:20:44.000Z,3.15
2022-11-06T12:25:56.552Z,3.10
2022-11-06T12:31:09.710Z,2.78
2022-11-06T12:36:18.141Z,3.40
2022-11-06T12:41:26.840Z,3.47
2022-11-06T12:46:46.834Z,3.28
2022-11-06T12:57:00.739Z,3.28
2022-11-06T13:02:23.228Z,3.65
2022-11-06T13:07:59.296Z,3.97
2022-11-06T13:13:36.251Z,3.78
2022-11-06T13:18:43.158Z,3.33
2022-11-06T13:23:51.270Z,3.78
2022-11-06T13:28:57.154Z,3.25
2022-11-06T13:34:01.456Z,3.20
2022-11-06T13:39:15.467Z,2.67
2022-11-06T13:44:18.732Z,3.30
2022-11-06T13:49:46.699Z,3.20
2022-11-06T13:55:02.566Z,3.35
2022-11-06T14:00:29.048Z,2.85
2022-11-06T14:05:49.577Z,3.95
2022-11-06T14:11:19.320Z,3.70
2022-11-06T14:16:20.821Z,4.38
2022-11-06T14:21:37.657Z,4.35
2022-11-06T14:26:45.244Z,4.28
2022-11-06T14:32:32.347Z,5.20
2022-11-06T14:37:33.864Z,5.15
2022-11-06T14:42:38.137Z,5.75
2022-11-06T14:47:45.726Z,7.07
2022-11-06T14:52:51.200Z,5.80
2022-11-06T14:57:54.934Z,6.63
2022-11-06T15:02:59.322Z,7.28
2022-11-06T15:08:05.638Z,7.93
2022-11-06T15:13:17.103Z,7.43
2022-11-06T15:18:24.552Z,8.32
2022-11-06T15:24:09.276Z,8.80
2022-11-06T15:29:22.721Z,8.55
2022-11-06T15:34:37.823Z,10.23
2022-11-06T15:39:49.460Z,8.10
2022-11-06T15:44:52.068Z,8.02
2022-11-06T15:50:12.688Z,8.20
2022-11-06T15:55:35.909Z,7.78
2022-11-06T16:00:41.533Z,7.43
2022-11-06T16:05:43.646Z,7.18
2022-11-06T16:10:48.342Z,8.57
2022-11-06T16:16:03.050Z,8.05
2022-11-06T16:21:09.817Z,7.18
2022-11-06T16:26:15.322Z,7.28
2022-11-06T16:31:18.860Z,7.03
2022-11-06T16:36:20.452Z,9.38
2022-11-06T16:42:04.200Z,8.75
2022-11-06T16:47:05.808Z,15.45
2022-11-06T16:52:25.604Z,9.52
2022-11-06T16:57:56.512Z,8.68
2022-11-06T17:03:01.270Z,9.07
2022-11-06T17:08:18.481Z,10.20
2022-11-06T17:13:21.126Z,8.40
2022-11-06T17:18:31.512Z,9.25
2022-11-06T17:23:34.026Z,8.20
2022-11-06T17:28:35.571Z,11.07
2022-11-06T17:33:37.207Z,9.40
2022-11-06T17:38:38.795Z,10.60
2022-11-06T17:43:40.476Z,9.23
2022-11-06T17:48:42.010Z,8.95
2022-11-06T17:53:43.579Z,9.05
2022-11-06T17:58:45.163Z,8.32
2022-11-06T18:03:46.894Z,7.85
2022-11-06T18:08:48.546Z,7.65
2022-11-06T18:13:50.095Z,7.85
2022-11-06T18:18:54.271Z,7.75
2022-11-06T18:23:58.184Z,8.38
2022-11-06T18:29:03.570Z,7.80
2022-11-06T18:34:05.791Z,8.70
2022-11-06T18:39:08.050Z,9.20
2022-11-06T18:44:09.662Z,8.27
2022-11-06T18:49:12.421Z,8.10
2022-11-06T18:54:14.047Z,8.43
2022-11-06T18:59:19.695Z,6.70
2022-11-06T19:04:22.007Z,6.95
2022-11-06T19:09:23.632Z,5.78
2022-11-06T19:14:25.201Z,6.57
2022-11-06T19:19:26.940Z,5.68
2022-11-06T19:24:28.527Z,5.70
2022-11-06T19:29:30.241Z,5.63
2022-11-06T19:34:35.342Z,5.03
2022-11-06T19:39:40.512Z,5.78
2022-11-06T19:44:42.083Z,4.70
2022-11-06T19:49:43.643Z,5.18
2022-11-06T19:54:45.280Z,7.10
2022-11-06T19:59:46.894Z,6.30
2022-11-06T20:04:48.439Z,7.80
2022-11-06T20:09:50.003Z,6.40
2022-11-06T20:14:52.122Z,5.40
2022-11-06T20:19:53.697Z,5.53
2022-11-06T20:24:55.340Z,6.18
2022-11-06T20:29:57.021Z,10.93
2022-11-06T20:34:59.668Z,10.05
2022-11-06T20:40:01.236Z,9.82
2022-11-06T20:45:02.879Z,10.55
2022-11-06T20:50:04.727Z,10.40
2022-11-06T20:55:06.890Z,7.82
2022-11-06T21:00:09.307Z,9.50
2022-11-06T21:05:10.938Z,7.25
2022-11-06T21:10:12.531Z,6.47
2022-11-06T21:15:14.161Z,5.35
2022-11-06T21:20:22.493Z,5.82
2022-11-06T21:25:24.398Z,6.25
2022-11-06T21:30:26.011Z,6.53
2022-11-06T21:35:27.592Z,4.47
2022-11-06T21:40:29.260Z,2.40
2022-11-06T21:45:30.878Z,1.67
2022-11-06T21:50:32.465Z,1.10
2022-11-06T21:55:53.950Z,0.98
2022-11-06T22:00:55.681Z,1.02
2022-11-06T22:06:04.228Z,1.75
2022-11-06T22:11:23.634Z,1.38
2022-11-06T22:16:28.174Z,1.50
2022-11-06T22:21:30.792Z,1.30
2022-11-06T22:26:34.019Z,1.30
2022-11-06T22:31:35.653Z,1.30
2022-11-06T22:36:37.554Z,1.50
2022-11-06T22:41:39.636Z,1.58
2022-11-06T22:46:41.507Z,1.42
2022-11-06T22:51:43.134Z,1.48
2022-11-06T22:56:44.732Z,1.80
2022-11-06T23:01:46.477Z,1.80
2022-11-06T23:06:48.075Z,1.80
2022-11-06T23:11:49.776Z,1.70
2022-11-06T23:16:57.197Z,1.73
2022-11-06T23:22:17.813Z,1.75
2022-11-06T23:27:20.637Z,1.50
2022-11-06T23:32:22.257Z,2.63
2022-11-06T23:37:24.622Z,2.00
2022-11-06T23:42:26.247Z,2.13
2022-11-06T23:47:28.131Z,1.80
2022-11-06T23:52:29.892Z,1.65
2022-11-06T23:57:31.677Z,1.60
